Time;durP1;ratioP1;P1;durP2;ratioP2;P2;SDS_P1;SDS_P2;PMS_P1;PMS_P2;Temp;Humidity;BMP_temperature;BMP_pressure;BME280_temperature;BME280_humidity;BME280_pressure;Samples;Min_cycle;Max_cycle;Signal;HPM_P1;HPM_P2
2021/12/25 00:00:24;;;;;;;1.48;0.50;;;-1.20;99.90;;;;;;2125399;67;20201;-70
2021/12/25 00:03:06;;;;;;;4.13;1.30;;;-1.20;99.90;;;;;;2129787;67;20187;-70
2021/12/25 00:05:52;;;;;;;1.45;0.55;;;-1.20;99.90;;;;;;2136333;67;20303;-70
2021/12/25 00:08:34;;;;;;;2.88;0.68;;;-1.20;99.90;;;;;;2143371;66;20198;-69
2021/12/25 00:11:16;;;;;;;2.20;0.80;;;-1.30;99.90;;;;;;2144562;66;20268;-69
2021/12/25 00:14:09;;;;;;;1.92;0.90;;;-1.30;99.90;;;;;;2132111;67;20564;-70
2021/12/25 00:16:58;;;;;;;1.63;0.90;;;-1.40;99.90;;;;;;2136933;66;20332;-69
2021/12/25 00:19:43;;;;;;;3.67;0.77;;;-1.50;99.90;;;;;;2132249;67;20336;-69
2021/12/25 00:22:25;;;;;;;1.88;0.82;;;-1.50;99.90;;;;;;2132022;67;20184;-69
2021/12/25 00:25:07;;;;;;;1.65;0.70;;;-1.40;99.90;;;;;;2122037;67;20328;-70
2021/12/25 00:27:59;;;;;;;3.67;0.80;;;-1.30;99.90;;;;;;2123739;67;20362;-69
2021/12/25 00:31:47;;;;;;;2.97;0.88;;;-1.30;99.90;;;;;;2125052;67;20362;-69
2021/12/25 00:33:58;;;;;;;4.22;1.00;;;-1.50;99.90;;;;;;2127672;67;20615;-69
2021/12/25 00:36:52;;;;;;;2.67;0.80;;;-1.40;99.90;;;;;;2121782;67;20164;-70
2021/12/25 00:39:35;;;;;;;2.90;0.60;;;-1.50;99.90;;;;;;2118975;67;20188;-70
2021/12/25 00:42:17;;;;;;;5.28;1.35;;;-1.60;99.90;;;;;;2126528;67;20175;-69
2021/12/25 00:44:59;;;;;;;1.20;0.70;;;-1.60;99.90;;;;;;2131212;66;20291;-69
2021/12/25 00:47:41;;;;;;;2.20;0.70;;;-1.60;99.90;;;;;;2143721;66;20768;-69
2021/12/25 00:50:23;;;;;;;2.30;0.63;;;-1.80;99.90;;;;;;2140290;66;20692;-69
2021/12/25 00:53:09;;;;;;;5.20;0.93;;;-1.80;99.90;;;;;;2135868;66;20255;-69
2021/12/25 00:55:58;;;;;;;2.05;0.82;;;-1.90;99.90;;;;;;2138095;66;20253;-70
2021/12/25 00:58:40;;;;;;;1.20;0.73;;;-2.00;99.90;;;;;;2143904;66;20352;-69
2021/12/25 01:01:26;;;;;;;4.78;0.82;;;-1.70;99.90;;;;;;2145930;66;20831;-69
2021/12/25 01:04:14;;;;;;;1.65;0.60;;;-2.00;99.90;;;;;;2144690;66;20297;-69
2021/12/25 01:07:10;;;;;;;2.45;0.60;;;-2.10;99.90;;;;;;2123502;67;20928;-69
2021/12/25 01:09:55;;;;;;;0.98;0.50;;;-2.10;99.90;;;;;;2119183;67;20685;-68
2021/12/25 01:12:53;;;;;;;0.50;0.30;;;-2.20;99.90;;;;;;2110024;67;20225;-69
2021/12/25 01:25:04;;;;;;;0.52;0.40;;;-2.30;99.90;;;;;;2114207;67;20317;-69
2021/12/25 01:49:04;;;;;;;0.80;0.50;;;-2.50;99.90;;;;;;2119601;67;20283;-69
2021/12/25 01:52:08;;;;;;;2.08;0.50;;;-2.60;99.90;;;;;;2109458;67;20326;-70
2021/12/25 01:54:50;;;;;;;0.60;0.30;;;-2.60;99.90;;;;;;2112592;67;20571;-69
2021/12/25 01:57:32;;;;;;;2.45;0.60;;;-2.60;99.90;;;;;;2104619;67;20186;-68
2021/12/25 02:00:26;;;;;;;1.55;0.43;;;-2.60;99.90;;;;;;2117455;67;20236;-67
2021/12/25 02:03:12;;;;;;;1.55;0.40;;;-2.60;99.90;;;;;;2123660;67;20187;-69
2021/12/25 02:05:57;;;;;;;1.75;0.70;;;-2.70;99.90;;;;;;2129059;67;20326;-69
2021/12/25 02:08:42;;;;;;;1.35;0.60;;;-2.70;99.90;;;;;;2130561;67;20258;-67
2021/12/25 02:11:25;;;;;;;0.80;0.30;;;-2.90;99.90;;;;;;2117741;67;20185;-68
2021/12/25 02:14:09;;;;;;;0.57;0.32;;;-2.80;99.90;;;;;;2124816;67;20358;-69
2021/12/25 02:17:12;;;;;;;2.25;0.43;;;-2.80;99.90;;;;;;2127501;67;20436;-69
2021/12/25 02:20:17;;;;;;;2.83;0.45;;;-2.90;99.90;;;;;;2130827;67;20176;-69
2021/12/25 02:23:02;;;;;;;0.65;0.40;;;-2.90;99.90;;;;;;2138512;67;20329;-68
2021/12/25 02:25:45;;;;;;;1.88;0.30;;;-2.60;99.90;;;;;;2137504;66;20192;-68
2021/12/25 02:28:30;;;;;;;1.80;0.70;;;-3.00;99.90;;;;;;2133247;67;20666;-67
2021/12/25 02:31:17;;;;;;;1.23;0.32;;;-2.90;99.90;;;;;;2147520;66;20339;-68
2021/12/25 02:34:01;;;;;;;1.52;0.50;;;-3.00;99.90;;;;;;2141348;66;20262;-68
2021/12/25 02:36:47;;;;;;;0.63;0.47;;;-3.00;99.90;;;;;;2143301;66;20201;-69
2021/12/25 02:39:33;;;;;;;1.88;0.40;;;-3.00;99.90;;;;;;2145368;66;20195;-69
2021/12/25 02:42:17;;;;;;;0.40;0.30;;;-3.10;99.90;;;;;;2134441;66;20249;-68
2021/12/25 02:44:59;;;;;;;1.45;0.10;;;-3.10;99.90;;;;;;2131788;67;20172;-68
2021/12/25 02:47:42;;;;;;;0.60;0.22;;;-3.00;99.90;;;;;;2138071;66;20365;-68
2021/12/25 02:50:30;;;;;;;0.47;0.30;;;-3.10;99.90;;;;;;2139825;66;20195;-68
2021/12/25 02:53:13;;;;;;;2.08;0.50;;;-3.10;99.90;;;;;;2125238;67;20211;-68
2021/12/25 02:55:58;;;;;;;0.50;0.20;;;-3.20;99.90;;;;;;2125632;67;20337;-68
2021/12/25 02:58:40;;;;;;;2.38;0.60;;;-3.20;99.90;;;;;;2114665;67;20290;-68
2021/12/25 03:01:25;;;;;;;0.68;0.43;;;-3.40;99.90;;;;;;2118598;67;20185;-69
2021/12/25 03:04:08;;;;;;;1.05;0.30;;;-3.20;99.90;;;;;;2119566;67;20212;-68
2021/12/25 03:06:49;;;;;;;2.95;0.30;;;-3.20;99.90;;;;;;2125350;67;20188;-69
2021/12/25 03:09:31;;;;;;;0.70;0.22;;;-3.00;99.90;;;;;;2118181;67;20240;-68
2021/12/25 03:12:15;;;;;;;0.75;0.30;;;-3.30;99.90;;;;;;2118011;67;20712;-67
2021/12/25 03:15:15;;;;;;;0.93;0.30;;;-3.20;99.90;;;;;;2124635;67;20331;-68
2021/12/25 03:17:57;;;;;;;1.73;0.40;;;-3.30;99.90;;;;;;2129451;67;20305;-68
2021/12/25 03:20:44;;;;;;;0.70;0.40;;;-3.30;99.90;;;;;;2134819;66;20169;-69
2021/12/25 03:23:29;;;;;;;0.57;0.20;;;-3.30;99.90;;;;;;2145109;66;20272;-69
2021/12/25 03:26:13;;;;;;;2.63;0.30;;;-3.30;99.90;;;;;;2127261;66;20357;-69
2021/12/25 03:28:59;;;;;;;0.52;0.30;;;-3.40;99.90;;;;;;2130418;67;20177;-69
2021/12/25 03:31:45;;;;;;;3.63;0.70;;;-3.40;99.90;;;;;;2145064;66;20311;-68
2021/12/25 03:34:26;;;;;;;0.90;0.28;;;-3.40;99.90;;;;;;2137166;66;20204;-69
2021/12/25 03:37:09;;;;;;;1.20;0.22;;;-3.40;99.90;;;;;;2140298;66;20361;-67
2021/12/25 03:39:53;;;;;;;5.90;2.20;;;-3.40;99.90;;;;;;2146822;66;20358;-67
2021/12/25 03:42:35;;;;;;;1.88;0.30;;;-3.50;99.90;;;;;;2132386;67;20250;-69
2021/12/25 03:45:17;;;;;;;2.45;0.45;;;-3.50;99.90;;;;;;2124019;67;20290;-68
2021/12/25 03:48:12;;;;;;;2.17;0.30;;;-3.50;99.90;;;;;;2096293;68;20232;-68
2021/12/25 04:00:08;;;;;;;1.20;0.60;;;-3.60;99.90;;;;;;2107579;67;20166;-68
2021/12/25 04:02:56;;;;;;;0.52;0.38;;;-3.60;99.90;;;;;;2103914;67;20195;-68
2021/12/25 04:05:52;;;;;;;0.82;0.30;;;-3.60;99.90;;;;;;2108631;67;20207;-68
2021/12/25 04:08:46;;;;;;;0.73;0.30;;;-3.70;99.90;;;;;;2099404;68;20291;-70
2021/12/25 04:11:31;;;;;;;0.35;0.20;;;-3.70;99.90;;;;;;2110387;67;20339;-69
2021/12/25 04:14:15;;;;;;;0.73;0.20;;;-3.70;99.90;;;;;;2123093;67;20383;-69
2021/12/25 04:16:59;;;;;;;0.85;0.40;;;-3.70;99.90;;;;;;2119997;67;20959;-68
2021/12/25 04:19:42;;;;;;;3.55;1.15;;;-3.80;99.90;;;;;;2120786;67;20200;-68
2021/12/25 04:22:33;;;;;;;2.10;0.60;;;-3.80;99.90;;;;;;2125790;67;20803;-68
2021/12/25 04:25:31;;;;;;;1.08;0.22;;;-3.90;99.90;;;;;;2129728;67;20179;-67
2021/12/25 04:28:20;;;;;;;0.38;0.20;;;-3.90;99.90;;;;;;2125659;67;20334;-69
2021/12/25 04:49:45;;;;;;;1.25;0.20;;;-4.10;99.90;;;;;;2114468;67;20221;-67
2021/12/25 05:04:22;;;;;;;1.27;0.32;;;-4.20;99.90;;;;;;2106109;67;20724;-67
2021/12/25 05:07:05;;;;;;;1.17;0.25;;;-4.20;99.90;;;;;;2120458;67;20218;-67
2021/12/25 05:09:47;;;;;;;3.35;0.45;;;-4.20;99.90;;;;;;2122015;67;20778;-68
2021/12/25 05:12:29;;;;;;;0.93;0.50;;;-4.20;99.90;;;;;;2126953;67;20192;-69
2021/12/25 05:15:11;;;;;;;1.60;0.30;;;-4.20;99.90;;;;;;2133112;67;20171;-68
2021/12/25 05:17:53;;;;;;;0.70;0.30;;;-4.20;99.90;;;;;;2135739;66;20688;-68
2021/12/25 05:20:36;;;;;;;2.22;0.40;;;-4.30;99.90;;;;;;2147621;66;20162;-67
2021/12/25 05:23:20;;;;;;;0.57;0.50;;;-4.30;99.90;;;;;;2151946;66;20265;-67
2021/12/25 05:26:04;;;;;;;0.73;0.20;;;-4.30;99.90;;;;;;2147095;66;20158;-68
2021/12/25 05:28:57;;;;;;;1.42;0.80;;;-4.30;99.90;;;;;;2135647;66;20339;-67
2021/12/25 05:31:39;;;;;;;1.08;0.30;;;-4.30;99.90;;;;;;2143456;66;20813;-67
2021/12/25 05:34:21;;;;;;;0.90;0.47;;;-4.40;99.90;;;;;;2139587;66;20690;-68
2021/12/25 05:37:04;;;;;;;0.70;0.50;;;-4.50;99.90;;;;;;2146581;66;20376;-68
2021/12/25 05:39:51;;;;;;;;;;;-4.40;99.90;;;;;;2147343;66;20979;-67
2021/12/25 05:42:32;;;;;;;1.02;0.28;;;-4.30;99.90;;;;;;2168624;65;20252;-69
2021/12/25 05:45:15;;;;;;;1.52;0.63;;;-4.30;99.90;;;;;;2174881;65;20634;-68
2021/12/25 05:47:59;;;;;;;1.40;0.25;;;-4.40;99.90;;;;;;2146281;66;20277;-67
2021/12/25 05:50:42;;;;;;;2.35;0.40;;;-4.30;99.90;;;;;;2145068;66;20338;-68
2021/12/25 05:53:27;;;;;;;1.55;0.45;;;-4.40;99.90;;;;;;2128166;67;20699;-68
2021/12/25 05:56:10;;;;;;;2.22;0.40;;;-4.40;99.90;;;;;;2113367;67;20169;-68
2021/12/25 05:58:56;;;;;;;0.57;0.28;;;-4.40;99.90;;;;;;2111676;67;20363;-68
2021/12/25 06:01:40;;;;;;;1.50;0.40;;;-4.40;99.90;;;;;;2118546;67;20317;-68
2021/12/25 06:04:22;;;;;;;0.68;0.40;;;-4.40;99.90;;;;;;2119993;67;20197;-67
2021/12/25 06:07:03;;;;;;;1.88;0.40;;;-4.40;99.90;;;;;;2119190;67;20335;-68
2021/12/25 06:09:46;;;;;;;1.50;0.30;;;-4.40;99.90;;;;;;2112588;67;20193;-68
2021/12/25 06:12:32;;;;;;;3.40;0.98;;;-4.40;99.90;;;;;;2111517;67;20310;-67
2021/12/25 06:15:15;;;;;;;1.02;0.50;;;-4.40;99.90;;;;;;2113851;67;20333;-68
2021/12/25 06:17:56;;;;;;;1.77;1.05;;;-4.30;99.90;;;;;;2114428;67;20370;-67
2021/12/25 06:20:40;;;;;;;2.95;0.35;;;-4.30;99.90;;;;;;2116575;67;20202;-66
2021/12/25 06:23:26;;;;;;;1.00;0.40;;;-4.40;99.90;;;;;;2130256;67;20290;-68
2021/12/25 06:26:09;;;;;;;1.85;0.40;;;-4.40;99.90;;;;;;2117646;67;20381;-68
2021/12/25 06:28:53;;;;;;;3.60;0.20;;;-4.40;99.90;;;;;;2126269;67;20303;-68
2021/12/25 06:31:37;;;;;;;0.73;0.50;;;-4.40;99.90;;;;;;2139650;67;20216;-68
2021/12/25 06:34:21;;;;;;;0.95;0.45;;;-4.40;99.90;;;;;;1910386;67;15113853;-68
2021/12/25 06:37:04;;;;;;;3.55;1.00;;;-4.40;99.90;;;;;;2125581;67;20829;-68
2021/12/25 06:39:47;;;;;;;2.78;0.50;;;-4.40;99.90;;;;;;2134359;67;20427;-67
2021/12/25 06:42:29;;;;;;;3.78;0.38;;;-4.40;99.90;;;;;;2123154;67;20257;-68
2021/12/25 06:45:12;;;;;;;0.73;0.20;;;-4.40;99.90;;;;;;2118648;67;20181;-67
2021/12/25 06:48:00;;;;;;;6.32;0.38;;;-4.40;99.90;;;;;;2117727;67;20319;-67
2021/12/25 06:50:42;;;;;;;1.55;1.27;;;-4.40;99.90;;;;;;2125184;67;20741;-68
2021/12/25 06:53:25;;;;;;;0.82;0.40;;;-4.50;99.90;;;;;;2128811;67;20274;-68
2021/12/25 06:56:09;;;;;;;0.70;0.30;;;-4.50;99.90;;;;;;2125700;67;20192;-68
2021/12/25 06:58:51;;;;;;;1.45;0.47;;;-4.40;99.90;;;;;;2136095;67;20248;-68
2021/12/25 07:01:35;;;;;;;1.02;0.40;;;-4.50;99.90;;;;;;2137531;66;20196;-68
2021/12/25 07:04:20;;;;;;;2.97;0.40;;;-4.50;99.90;;;;;;2140452;66;20356;-66
2021/12/25 07:07:02;;;;;;;0.43;0.28;;;-4.50;99.90;;;;;;2140389;66;20292;-67
2021/12/25 07:09:43;;;;;;;2.20;0.50;;;-4.50;99.90;;;;;;2139658;66;20275;-68
2021/12/25 07:12:27;;;;;;;2.88;0.50;;;-4.60;99.90;;;;;;2144549;66;20178;-68
2021/12/25 07:15:09;;;;;;;0.93;0.50;;;-4.60;99.90;;;;;;2132803;67;20537;-68
2021/12/25 07:17:51;;;;;;;2.55;0.63;;;-4.60;99.90;;;;;;2127343;67;20792;-68
2021/12/25 07:20:33;;;;;;;1.35;0.50;;;-4.60;99.90;;;;;;2133607;66;20324;-67
2021/12/25 07:23:17;;;;;;;1.00;0.40;;;-4.60;99.90;;;;;;2139562;67;20312;-67
2021/12/25 07:26:06;;;;;;;1.15;0.50;;;-4.60;99.90;;;;;;2146923;66;20222;-67
2021/12/25 07:28:48;;;;;;;1.35;0.47;;;-4.70;99.90;;;;;;2147075;66;20208;-68
2021/12/25 07:31:30;;;;;;;4.38;0.73;;;-4.70;99.90;;;;;;2147707;66;20178;-68
2021/12/25 07:34:12;;;;;;;5.35;0.50;;;-4.70;99.90;;;;;;2127908;67;20184;-68
2021/12/25 07:36:54;;;;;;;3.58;0.90;;;-4.70;99.90;;;;;;2127592;67;20213;-68
2021/12/25 07:39:37;;;;;;;0.63;0.38;;;-4.70;99.90;;;;;;2127576;67;20376;-69
2021/12/25 07:42:22;;;;;;;;;;;-4.80;99.90;;;;;;2139003;67;20299;-68
2021/12/25 07:45:10;;;;;;;0.82;0.40;;;-4.80;99.90;;;;;;2139614;66;20540;-68
2021/12/25 07:47:59;;;;;;;;;;;-4.80;99.90;;;;;;2145266;66;20705;-69
2021/12/25 07:50:44;;;;;;;4.85;0.60;;;-4.90;99.90;;;;;;2146939;66;20145;-68
2021/12/25 07:53:26;;;;;;;1.63;0.50;;;-4.90;99.90;;;;;;2143983;66;20254;-69
2021/12/25 07:56:08;;;;;;;1.77;0.77;;;-4.90;99.90;;;;;;2138691;67;20202;-69
2021/12/25 07:58:53;;;;;;;1.00;0.60;;;-4.80;99.90;;;;;;2155372;66;20359;-69
2021/12/25 08:01:35;;;;;;;0.88;0.40;;;-4.90;99.90;;;;;;2154514;66;20440;-68
2021/12/25 08:04:19;;;;;;;3.95;0.70;;;-4.90;99.90;;;;;;2153851;66;20273;-68
2021/12/25 08:07:03;;;;;;;1.45;0.45;;;-4.90;99.90;;;;;;2152793;66;20303;-68
2021/12/25 08:09:46;;;;;;;1.80;0.55;;;-4.90;99.90;;;;;;2147304;66;20314;-68
2021/12/25 08:12:32;;;;;;;2.55;0.70;;;-4.90;99.90;;;;;;2145313;66;20178;-68
2021/12/25 08:15:15;;;;;;;0.80;0.30;;;-4.90;99.90;;;;;;2146925;66;20763;-69
2021/12/25 08:18:00;;;;;;;2.70;0.70;;;-5.10;99.90;;;;;;2151077;66;20767;-69
2021/12/25 08:20:44;;;;;;;2.78;0.65;;;-4.90;99.90;;;;;;2150266;66;20181;-69
2021/12/25 08:23:26;;;;;;;5.65;1.15;;;-5.00;99.90;;;;;;2153667;66;20249;-68
2021/12/25 08:26:10;;;;;;;1.90;0.60;;;-5.00;99.90;;;;;;2146339;66;20750;-69
2021/12/25 08:28:56;;;;;;;4.00;0.90;;;-5.00;99.90;;;;;;2139354;66;20933;-68
2021/12/25 08:31:43;;;;;;;1.08;0.90;;;-5.00;99.90;;;;;;2154305;66;20195;-70
2021/12/25 08:34:25;;;;;;;0.80;0.63;;;-4.50;99.90;;;;;;2154126;66;20284;-69
2021/12/25 08:37:07;;;;;;;0.98;0.60;;;-5.00;99.90;;;;;;2147708;66;20443;-69
2021/12/25 08:39:51;;;;;;;0.88;0.43;;;-4.90;99.90;;;;;;2141017;66;20204;-69
2021/12/25 08:42:35;;;;;;;1.27;0.57;;;-5.00;99.90;;;;;;2138307;66;20198;-68
2021/12/25 08:46:02;;;;;;;0.47;0.32;;;-4.90;99.90;;;;;;2148328;66;20263;-69
2021/12/25 08:48:26;;;;;;;3.78;1.30;;;-4.90;99.90;;;;;;2127919;67;20160;-69
2021/12/25 08:51:08;;;;;;;0.90;0.30;;;-4.80;99.90;;;;;;2131114;67;20700;-69
2021/12/25 08:53:50;;;;;;;5.35;0.95;;;-4.80;99.90;;;;;;2126613;67;20212;-69
2021/12/25 08:56:32;;;;;;;1.05;0.65;;;-4.80;99.90;;;;;;2131365;67;20316;-68
2021/12/25 08:59:15;;;;;;;0.73;0.40;;;-4.70;99.90;;;;;;2123601;67;20391;-67
2021/12/25 09:02:01;;;;;;;;;;;-4.70;99.90;;;;;;2123742;67;20271;-69
2021/12/25 09:04:45;;;;;;;2.47;0.60;;;-4.70;99.90;;;;;;2118292;67;20656;-68
2021/12/25 09:07:27;;;;;;;1.13;0.50;;;-4.70;99.90;;;;;;2112977;67;20354;-68
2021/12/25 09:10:11;;;;;;;0.40;0.30;;;-4.60;99.90;;;;;;2123432;67;20357;-69
2021/12/25 09:12:57;;;;;;;1.92;0.82;;;-3.90;99.90;;;;;;2109115;67;20210;-68
2021/12/25 09:15:40;;;;;;;4.18;0.60;;;-4.50;99.90;;;;;;2110858;67;20224;-69
2021/12/25 09:18:24;;;;;;;3.03;0.63;;;-4.50;99.90;;;;;;2103908;67;20301;-68
2021/12/25 09:21:06;;;;;;;1.27;0.47;;;-4.50;99.90;;;;;;2110923;67;20275;-69
2021/12/25 09:23:48;;;;;;;2.38;0.90;;;-4.50;99.90;;;;;;2121259;67;20212;-70
2021/12/25 09:26:31;;;;;;;2.22;0.80;;;-4.50;99.90;;;;;;2118049;67;20360;-69
2021/12/25 09:29:15;;;;;;;3.47;0.43;;;-3.70;99.90;;;;;;2116891;67;20362;-70
2021/12/25 09:31:58;;;;;;;3.17;0.75;;;-4.50;99.90;;;;;;2124020;67;20176;-69
2021/12/25 09:34:39;;;;;;;1.45;1.13;;;-4.40;99.90;;;;;;2117507;67;20273;-69
2021/12/25 09:37:21;;;;;;;4.90;0.70;;;-4.40;99.90;;;;;;2131601;67;20450;-70
2021/12/25 09:40:05;;;;;;;1.30;0.68;;;-4.30;99.90;;;;;;2129908;67;20201;-69
2021/12/25 09:42:47;;;;;;;2.58;0.90;;;-4.30;99.90;;;;;;2131896;67;20311;-69
2021/12/25 09:45:36;;;;;;;5.30;1.02;;;-4.20;99.90;;;;;;2124639;67;20464;-68
2021/12/25 09:48:24;;;;;;;3.70;0.50;;;-4.10;99.90;;;;;;2129216;67;20737;-68
2021/12/25 09:51:06;;;;;;;1.27;0.70;;;-4.00;99.90;;;;;;2136605;67;20338;-68
2021/12/25 09:54:06;;;;;;;3.80;0.68;;;-4.10;99.90;;;;;;2133955;67;20271;-69
2021/12/25 09:56:54;;;;;;;2.00;0.43;;;-4.10;99.90;;;;;;2132344;66;20482;-68
2021/12/25 09:59:40;;;;;;;4.03;0.93;;;-4.00;99.90;;;;;;2156247;66;20754;-69
2021/12/25 10:02:24;;;;;;;1.90;0.70;;;-4.00;99.90;;;;;;2153647;66;20186;-68
2021/12/25 10:05:10;;;;;;;1.90;0.70;;;-4.00;99.90;;;;;;2132309;67;20340;-68
2021/12/25 10:08:20;;;;;;;1.70;0.70;;;-4.00;99.90;;;;;;2142429;66;20343;-68
2021/12/25 10:11:04;;;;;;;1.42;1.25;;;-3.90;99.90;;;;;;2139596;66;20178;-69
2021/12/25 10:13:46;;;;;;;4.90;0.95;;;-3.70;99.90;;;;;;2124666;67;20196;-69
2021/12/25 10:16:30;;;;;;;0.60;0.43;;;-3.80;99.90;;;;;;2121708;67;20212;-69
2021/12/25 10:19:16;;;;;;;1.92;1.17;;;-3.70;99.90;;;;;;2128788;67;20268;-68
2021/12/25 10:22:07;;;;;;;2.67;0.55;;;-3.70;99.90;;;;;;2138733;67;20747;-69
2021/12/25 10:25:07;;;;;;;2.28;0.70;;;-3.60;99.90;;;;;;2127877;67;20622;-68
2021/12/25 10:27:59;;;;;;;2.15;0.60;;;-3.60;99.90;;;;;;2125470;67;20399;-69
2021/12/25 10:31:02;;;;;;;5.40;0.60;;;-3.50;99.90;;;;;;2123580;67;20387;-69
2021/12/25 10:33:53;;;;;;;4.97;0.90;;;-3.50;99.90;;;;;;2123513;67;20363;-68
2021/12/25 10:36:37;;;;;;;4.25;0.77;;;-3.40;99.90;;;;;;2132242;67;20668;-68
2021/12/25 10:39:28;;;;;;;4.97;0.80;;;-3.30;99.90;;;;;;2130852;67;20179;-70
2021/12/25 10:42:18;;;;;;;2.42;1.92;;;-3.20;99.90;;;;;;2136636;66;20693;-68
2021/12/25 10:45:05;;;;;;;4.90;0.90;;;-3.20;99.90;;;;;;2123997;67;20765;-69
2021/12/25 10:48:02;;;;;;;1.75;0.85;;;-3.10;99.90;;;;;;2137343;67;20463;-69
2021/12/25 10:50:44;;;;;;;3.22;0.68;;;-3.10;99.90;;;;;;2139722;67;20224;-69
2021/12/25 10:53:41;;;;;;;1.90;0.57;;;-3.00;99.90;;;;;;2144190;66;20178;-68
2021/12/25 10:56:35;;;;;;;1.45;0.40;;;-2.90;99.90;;;;;;2153707;66;20302;-69
2021/12/25 10:59:18;;;;;;;3.60;0.47;;;-2.80;99.90;;;;;;2142600;66;20252;-69
2021/12/25 11:02:00;;;;;;;2.85;0.65;;;-2.70;99.90;;;;;;2137165;67;20226;-68
2021/12/25 11:04:42;;;;;;;3.05;0.80;;;-2.70;99.90;;;;;;2125668;67;20201;-69
2021/12/25 11:07:25;;;;;;;2.88;0.65;;;-2.70;99.90;;;;;;2115986;67;20177;-68
2021/12/25 11:10:06;;;;;;;1.65;0.70;;;-2.70;99.90;;;;;;2126101;67;20783;-68
2021/12/25 11:12:48;;;;;;;2.42;0.70;;;-2.50;99.90;;;;;;2117624;67;20339;-68
2021/12/25 11:15:32;;;;;;;1.48;0.82;;;-2.20;99.90;;;;;;2111614;67;20364;-69
2021/12/25 11:18:15;;;;;;;2.63;1.10;;;-1.50;99.90;;;;;;2124965;67;20183;-67
2021/12/25 11:20:59;;;;;;;1.52;0.70;;;-1.20;99.90;;;;;;2131420;67;20377;-69
2021/12/25 11:23:44;;;;;;;3.33;0.70;;;-0.60;99.90;;;;;;2138861;66;20237;-68
2021/12/25 11:26:27;;;;;;;1.70;0.60;;;-0.10;99.90;;;;;;2146874;66;20344;-68
2021/12/25 11:29:15;;;;;;;2.90;1.00;;;0.30;99.90;;;;;;2126136;66;20321;-68
2021/12/25 11:31:59;;;;;;;4.20;0.90;;;0.80;99.90;;;;;;2139980;66;20662;-69
2021/12/25 11:34:42;;;;;;;3.50;0.77;;;1.20;99.90;;;;;;2147375;66;20332;-69
2021/12/25 11:37:28;;;;;;;2.42;0.90;;;1.40;99.90;;;;;;2153731;66;20199;-68
2021/12/25 11:40:12;;;;;;;5.72;0.90;;;1.60;99.90;;;;;;2137684;66;20340;-70
2021/12/25 11:42:56;;;;;;;2.45;0.80;;;1.70;99.90;;;;;;2144536;66;20322;-68
2021/12/25 11:45:41;;;;;;;7.53;1.88;;;1.80;99.90;;;;;;2149362;66;20214;-68
2021/12/25 11:48:23;;;;;;;3.27;0.90;;;1.70;99.90;;;;;;2159174;66;20732;-68
2021/12/25 11:51:06;;;;;;;2.45;0.90;;;1.70;99.90;;;;;;2155634;66;20349;-69
2021/12/25 11:54:12;;;;;;;2.17;0.95;;;1.70;99.90;;;;;;2138393;66;20827;-68
2021/12/25 11:57:20;;;;;;;1.90;0.95;;;1.60;99.90;;;;;;2140026;66;21488;-69
2021/12/25 12:00:03;;;;;;;3.97;1.15;;;1.60;99.90;;;;;;2136286;67;20237;-68
2021/12/25 12:02:45;;;;;;;1.83;1.25;;;1.50;99.90;;;;;;2140227;66;20402;-68
2021/12/25 12:05:31;;;;;;;2.28;0.98;;;1.30;99.90;;;;;;2132203;67;20852;-69
2021/12/25 12:08:15;;;;;;;5.30;1.38;;;1.20;99.90;;;;;;2131116;67;20273;-69
2021/12/25 12:11:00;;;;;;;1.08;0.60;;;1.60;99.90;;;;;;2117630;67;20372;-69
2021/12/25 12:13:41;;;;;;;5.53;1.02;;;1.00;99.90;;;;;;2093504;67;20304;-71
2021/12/25 12:16:41;;;;;;;4.22;1.55;;;0.90;99.90;;;;;;2110635;67;20185;-71
2021/12/25 12:19:41;;;;;;;4.18;1.08;;;0.90;99.90;;;;;;2128522;67;20720;-73
2021/12/25 12:22:49;;;;;;;4.82;1.17;;;0.80;99.90;;;;;;2118363;67;20820;-68
2021/12/25 12:28:48;;;;;;;5.15;0.98;;;1.00;99.90;;;;;;2138267;66;20768;-72
2021/12/25 12:31:41;;;;;;;1.80;1.00;;;1.10;99.90;;;;;;2114630;67;20221;-72
2021/12/25 12:34:35;;;;;;;2.65;0.70;;;1.30;99.90;;;;;;2130060;67;20720;-70
2021/12/25 12:37:18;;;;;;;3.35;0.70;;;1.50;99.90;;;;;;2148755;66;20659;-71
2021/12/25 12:40:06;;;;;;;2.60;1.35;;;1.90;99.90;;;;;;2149058;66;20775;-72
2021/12/25 12:42:53;;;;;;;5.45;0.80;;;2.50;99.90;;;;;;2157241;66;20198;-72
2021/12/25 12:45:37;;;;;;;5.57;1.20;;;3.10;99.90;;;;;;2140463;66;20761;-71
2021/12/25 12:48:23;;;;;;;4.13;1.00;;;3.70;99.90;;;;;;2153638;66;20390;-73
2021/12/25 12:51:18;;;;;;;4.47;1.33;;;4.30;99.90;;;;;;2148408;66;20189;-70
2021/12/25 12:54:01;;;;;;;3.63;1.20;;;4.90;99.90;;;;;;2139946;66;20327;-71
2021/12/25 12:57:03;;;;;;;2.30;1.33;;;5.40;99.90;;;;;;2131634;66;20831;-70
2021/12/25 12:59:57;;;;;;;2.50;1.10;;;5.80;99.90;;;;;;2125954;67;20755;-73
2021/12/25 13:03:00;;;;;;;6.82;0.93;;;6.20;99.90;;;;;;2125597;67;20348;-69
2021/12/25 13:05:51;;;;;;;2.90;1.05;;;6.60;99.90;;;;;;2126045;67;20420;-72
2021/12/25 13:08:36;;;;;;;1.30;1.10;;;6.90;97.40;;;;;;2138873;66;20170;-72
2021/12/25 13:11:24;;;;;;;3.65;0.85;;;7.10;93.90;;;;;;2147220;66;20262;-71
2021/12/25 13:14:16;;;;;;;1.48;0.98;;;7.10;92.50;;;;;;2138876;66;20178;-72
2021/12/25 13:17:07;;;;;;;1.98;1.10;;;7.10;90.10;;;;;;2139563;66;20282;-74
2021/12/25 13:19:49;;;;;;;;;;;7.10;85.10;;;;;;2154275;66;20185;-72
2021/12/25 13:22:31;;;;;;;1.30;0.68;;;6.80;86.70;;;;;;2147398;66;20055;-72
2021/12/25 13:25:18;;;;;;;2.47;1.13;;;6.50;84.10;;;;;;2155119;66;20288;-73
2021/12/25 13:28:05;;;;;;;4.97;1.40;;;6.00;82.90;;;;;;2158135;66;20185;-71
2021/12/25 13:30:52;;;;;;;3.42;1.23;;;5.60;81.80;;;;;;2162248;65;20697;-70
2021/12/25 13:33:42;;;;;;;5.63;1.58;;;5.40;82.50;;;;;;2144598;66;20207;-73
2021/12/25 13:36:28;;;;;;;3.28;1.90;;;5.00;83.10;;;;;;2143246;66;20212;-68
2021/12/25 13:39:15;;;;;;;;;;;4.80;84.60;;;;;;2127039;67;20189;-68
2021/12/25 13:42:19;;;;;;;6.78;1.67;;;4.40;86.40;;;;;;2133574;67;20078;-67
2021/12/25 13:45:05;;;;;;;3.58;1.50;;;3.80;84.30;;;;;;2131055;67;20406;-68
2021/12/25 13:47:47;;;;;;;5.60;1.73;;;3.30;86.40;;;;;;2123991;67;20937;-68
2021/12/25 13:50:30;;;;;;;3.03;0.95;;;2.90;86.50;;;;;;2125830;67;20343;-67
2021/12/25 13:53:18;;;;;;;2.42;1.02;;;2.40;88.00;;;;;;2124238;67;20366;-67
2021/12/25 13:56:10;;;;;;;4.88;1.35;;;2.00;89.50;;;;;;2129697;66;20228;-68
2021/12/25 13:58:52;;;;;;;4.65;1.25;;;1.70;89.70;;;;;;2123842;67;20651;-67
2021/12/25 14:01:33;;;;;;;6.25;2.28;;;1.30;91.00;;;;;;2111628;67;20202;-67
2021/12/25 14:04:16;;;;;;;4.93;1.48;;;1.10;92.30;;;;;;2116878;67;20348;-67
2021/12/25 14:07:01;;;;;;;3.67;0.90;;;0.80;93.10;;;;;;2144903;66;20182;-68
2021/12/25 14:10:03;;;;;;;3.28;1.10;;;0.60;93.90;;;;;;2136059;67;20227;-68
2021/12/25 14:12:48;;;;;;;4.35;0.98;;;0.30;95.20;;;;;;2129098;67;20819;-68
2021/12/25 14:15:33;;;;;;;4.40;1.27;;;0.20;96.50;;;;;;2122787;67;20826;-67
2021/12/25 14:18:15;;;;;;;5.57;1.80;;;0.00;98.00;;;;;;2125055;67;20348;-67
2021/12/25 14:21:15;;;;;;;1.02;0.73;;;-0.20;99.50;;;;;;2139399;66;20440;-67
2021/12/25 14:24:02;;;;;;;2.58;1.05;;;-0.30;99.90;;;;;;2131863;67;20225;-67
2021/12/25 14:26:44;;;;;;;1.05;0.70;;;-0.40;99.90;;;;;;2131638;66;20194;-68
2021/12/25 14:29:28;;;;;;;1.67;0.68;;;-0.60;99.90;;;;;;2115372;67;20251;-69
2021/12/25 14:32:38;;;;;;;2.65;0.80;;;-0.60;99.90;;;;;;2117718;67;20329;-67
2021/12/25 14:35:21;;;;;;;1.77;0.88;;;-0.80;99.90;;;;;;2100156;68;20655;-67
2021/12/25 14:38:04;;;;;;;2.15;1.10;;;-0.80;99.90;;;;;;2096441;68;20831;-68
2021/12/25 14:40:51;;;;;;;2.28;0.90;;;-0.90;99.90;;;;;;2105503;67;20209;-68
2021/12/25 14:43:35;;;;;;;4.05;0.98;;;-1.10;99.90;;;;;;2098175;68;20872;-68
2021/12/25 14:46:20;;;;;;;3.15;1.05;;;-1.10;99.90;;;;;;2097473;67;20464;-68
2021/12/25 14:49:07;;;;;;;1.25;1.00;;;-1.20;99.90;;;;;;2105997;67;20571;-67
2021/12/25 14:51:52;;;;;;;6.88;1.50;;;-1.30;99.90;;;;;;2114203;67;20287;-67
2021/12/25 14:54:42;;;;;;;2.90;1.33;;;-1.30;99.90;;;;;;2116218;67;20239;-67
2021/12/25 14:57:30;;;;;;;1.70;0.77;;;-1.40;99.90;;;;;;2108737;67;20322;-66
2021/12/25 15:00:24;;;;;;;2.85;1.02;;;-1.50;99.90;;;;;;2118502;67;20254;-68
2021/12/25 15:03:15;;;;;;;5.35;1.08;;;-1.60;99.90;;;;;;2139063;66;20323;-67
2021/12/25 15:05:58;;;;;;;4.50;1.27;;;-1.70;99.90;;;;;;2115317;67;20351;-68
2021/12/25 15:08:40;;;;;;;3.67;0.95;;;-1.50;99.90;;;;;;2121625;67;20219;-68
2021/12/25 15:11:29;;;;;;;2.80;1.40;;;-1.80;99.90;;;;;;2147555;66;20296;-68
2021/12/25 15:14:16;;;;;;;2.10;1.20;;;-1.70;99.90;;;;;;2144631;66;20613;-67
2021/12/25 15:17:26;;;;;;;3.60;1.00;;;-1.70;99.90;;;;;;2144113;66;20332;-68
2021/12/25 15:20:15;;;;;;;0.75;0.70;;;-1.80;99.90;;;;;;2131986;67;20221;-67
2021/12/25 15:22:56;;;;;;;2.83;1.20;;;-1.90;99.90;;;;;;2124862;67;20347;-67
2021/12/25 15:25:38;;;;;;;8.45;1.30;;;-2.00;99.90;;;;;;2126157;66;20200;-67
2021/12/25 15:28:24;;;;;;;5.82;1.30;;;-2.10;99.90;;;;;;2137860;66;20358;-67
2021/12/25 15:31:28;;;;;;;2.00;0.98;;;-2.20;99.90;;;;;;2120487;67;20269;-67
2021/12/25 15:34:16;;;;;;;3.65;1.20;;;-2.30;99.90;;;;;;2124946;67;20314;-68
2021/12/25 15:37:00;;;;;;;;;;;-2.40;99.90;;;;;;2128200;67;20328;-67
2021/12/25 15:39:44;;;;;;;2.28;1.15;;;-2.40;99.90;;;;;;2117791;67;20073;-67
2021/12/25 15:42:27;;;;;;;4.03;1.70;;;-2.50;99.90;;;;;;2121208;67;20610;-67